This is the latest recevied weather packets stored in our database for station/object F1ZTH-10. If no packets are shown the sender has not sent any weather packets the latest 10 day(s).
| Time | Temp. | Humidity | Pressure | Rain* | Wind** | Luminosity | Snow |
|---|---|---|---|---|---|---|---|
| 1777830172 | 22.78° C | 44% | 974 hPa | - | - | - | - |
| 1777829272 | 24.44° C | 42% | 975 hPa | - | - | - | - |
| 1777828372 | 24.44° C | 43% | 975 hPa | - | - | - | - |
| 1777827472 | 23.33° C | 45% | 975 hPa | - | - | - | - |
| 1777826571 | 18.89° C | 51% | 975 hPa | - | - | - | - |
| 1777825671 | 18.89° C | 51% | 975 hPa | - | - | - | - |
| 1777824771 | 18.33° C | 52% | 975 hPa | - | - | - | - |
| 1777823871 | 17.78° C | 53% | 975 hPa | - | - | - | - |
| 1777822971 | 17.78° C | 53% | 976 hPa | - | - | - | - |
| 1777822070 | 17.78° C | 53% | 976 hPa | - | - | - | - |
| 1777821170 | 17.22° C | 53% | 976 hPa | - | - | - | - |
| 1777820270 | 17.22° C | 53% | 976 hPa | - | - | - | - |
| 1777819370 | 17.22° C | 53% | 976 hPa | - | - | - | - |
| 1777818470 | 17.22° C | 53% | 976 hPa | - | - | - | - |
| 1777817570 | 17.22° C | 53% | 976 hPa | - | - | - | - |
| 1777816670 | 17.22° C | 52% | 977 hPa | - | - | - | - |
| 1777815770 | 17.78° C | 52% | 977 hPa | - | - | - | - |
| 1777814870 | 17.22° C | 52% | 977 hPa | - | - | - | - |
| 1777813970 | 17.22° C | 53% | 977 hPa | - | - | - | - |
| 1777813070 | 17.22° C | 53% | 977 hPa | - | - | - | - |
| 1777812170 | 17.22° C | 53% | 977 hPa | - | - | - | - |
| 1777811270 | 16.67° C | 54% | 977 hPa | - | - | - | - |
| 1777810370 | 16.67° C | 54% | 977 hPa | - | - | - | - |
| 1777809470 | 16.67° C | 53% | 977 hPa | - | - | - | - |
| 1777808570 | 17.22° C | 53% | 977 hPa | - | - | - | - |
* Rain since midnight (hover to see other rain measurements)
** Current wind speed in m/s (hover to see current wind gust speed)